Arapora, Brazil
Current Conditions -  °F | °C
As of 3:40 PM on Saturday 20 Dec 2014 (Local Time) from SBUL Reporting Station
Light Rain Light Rain  
Wind Chill: 68°   Ceiling: Unl
Heat Index: 68°   Visibility: 3mi
Dew Point: 66°   Wind: 8mph
Humidity: 94%   Direction: 50°NE
Pressure: 29.97"   Gusts: NA
Location:  18.44°S, 49.18°W
Report Text: SBUL 201740Z 05007KT 5000 2000SW -RA FEW004 SCT035 FEW040TCU BKN070 20/19 Q1015 RESHRA
Loading
Personal Weather Stations






























Interactive Weather Map New forecast layout! Learn more

10-Day Weather Forecast

Advertisements
Track Severe Weather on mobile